Schooner Bowdoin — WAM8653 — position and weather

sailwx.info

Track history (hours):
 
Tides and Currents Weather Stations Pressure Air Temp Water Temp Dewpoint Dewpoint Depression Visibility Wind Speed Wind Dir Waves Ship Positions

Schooner Bowdoin

Training vessel for Maine Maritime Academy.

Ship's website: http://bowdoin.mma.edu/

Owner: MAINE MARITIME ACADEMY, CASTINE, ME. More information available from US FCC via Universal Licensing System and Coast Guard Vessel Documentation Center.

Last reported at 2018-Aug-14 06:57 UTC. Time now 2018-Aug-14 07:05 UTC.
Position N 44°09' W 068°53'.

Length 28 m; draft 3.2 m.

Type: Sailing vessel. MMSI: 303498000.

Date/timePositionNaut miles runAvg speedWind from/ knotsBaromVisibWave heightAir tempDewpointWater temp
2018-Aug-14 06:57N 44°09' W 068°53'0 0.0
2018-Aug-14 06:30N 44°09' W 068°53'0 0.0
2018-Aug-14 06:00N 44°09' W 068°53'0 0.0
2018-Aug-14 05:29N 44°09' W 068°53'0 0.0
2018-Aug-14 05:00N 44°09' W 068°53'0 0.0
2018-Aug-14 04:30N 44°09' W 068°53'0 0.0
2018-Aug-14 03:59N 44°09' W 068°53'0 0.0
2018-Aug-14 03:29N 44°09' W 068°53'0 0.0
2018-Aug-14 02:53N 44°09' W 068°53'0 0.0
2018-Aug-14 02:29N 44°09' W 068°53'0 0.0
2018-Aug-14 02:00N 44°09' W 068°53'0 0.0
2018-Aug-14 01:30N 44°09' W 068°53'0 0.0
2018-Aug-14 00:57N 44°09' W 068°53'0 0.0
2018-Aug-14 00:26N 44°09' W 068°53'0 0.0
2018-Aug-14 00:00N 44°09' W 068°53'0 0.0
2018-Aug-13 23:30N 44°09' W 068°53'0 0.0
2018-Aug-13 23:00N 44°09' W 068°53'0 0.0
2018-Aug-13 22:31N 44°09' W 068°53'0 0.0
2018-Aug-13 21:59N 44°09' W 068°53'0 0.0
2018-Aug-13 21:29N 44°09' W 068°53'0 0.0
2018-Aug-13 21:00N 44°09' W 068°53'0 0.0
2018-Aug-13 20:30N 44°09' W 068°53'0 0.0
2018-Aug-13 20:00N 44°09' W 068°53'0 0.4
2018-Aug-13 19:31N 44°09' W 068°53'3 5.5
2018-Aug-13 19:01N 44°12' W 068°54'4 7.2
2018-Aug-13 18:30N 44°16' W 068°53'4 7.2
2018-Aug-13 17:58N 44°19' W 068°51'3 6.0
2018-Aug-13 17:28N 44°22' W 068°49'2 4.1
2018-Aug-13 17:00N 44°21' W 068°51'3 6.9
2018-Aug-13 16:31N 44°17' W 068°52'2 4.1
2018-Aug-13 16:00N 44°19' W 068°51'3 5.1
2018-Aug-13 15:30N 44°22' W 068°50'2 0.1
2018-Aug-12 21:24N 44°23' W 068°48'0 0.0
2018-Aug-12 21:00N 44°23' W 068°48'0 0.0
2018-Aug-12 20:08N 44°23' W 068°48'0 0.0
2018-Aug-12 19:54N 44°23' W 068°48'0 0.0
2018-Aug-12 19:12N 44°23' W 068°48'0 0.0
2018-Aug-12 18:48N 44°23' W 068°48'0 0.0
2018-Aug-12 18:21N 44°23' W 068°48'0 0.0
2018-Aug-12 18:00N 44°23' W 068°48'0 0.0
2018-Aug-12 17:30N 44°23' W 068°48'0 0.0
2018-Aug-12 16:57N 44°23' W 068°48'0 0.0
2018-Aug-12 16:30N 44°23' W 068°48'0 0.0
2018-Aug-12 16:00N 44°23' W 068°48'0 0.0
2018-Aug-12 15:27N 44°23' W 068°48'0 0.0
2018-Aug-12 15:00N 44°23' W 068°48'0 0.0
2018-Aug-12 14:30N 44°23' W 068°48'0 0.0
2018-Aug-12 13:57N 44°23' W 068°48'0 0.0
2018-Aug-12 13:30N 44°23' W 068°48'0 0.0
2018-Aug-12 13:00N 44°23' W 068°48'0 0.0
2018-Aug-12 12:30N 44°23' W 068°48'0 0.0
2018-Aug-12 12:00N 44°23' W 068°48'0 0.0
2018-Aug-12 11:30N 44°23' W 068°48'0 0.0
2018-Aug-12 10:54N 44°23' W 068°48'0 0.0
2018-Aug-12 10:30N 44°23' W 068°48'0 0.0
2018-Aug-12 10:00N 44°23' W 068°48'0 0.0
2018-Aug-12 09:30N 44°23' W 068°48'0 0.0
2018-Aug-12 09:00N 44°23' W 068°48'0 0.0
2018-Aug-12 08:27N 44°23' W 068°48'0 0.0
2018-Aug-12 08:00N 44°23' W 068°48'0 0.0
2018-Aug-12 07:30N 44°23' W 068°48'0 0.0
2018-Aug-12 07:00N 44°23' W 068°48'0 0.0
2018-Aug-12 06:27N 44°23' W 068°48'0 0.0
2018-Aug-12 06:00N 44°23' W 068°48'0 0.0
2018-Aug-12 05:30N 44°23' W 068°48'0 0.0
2018-Aug-12 05:00N 44°23' W 068°48'0 0.0
2018-Aug-12 04:30N 44°23' W 068°48'0 0.0
2018-Aug-12 03:54N 44°23' W 068°48'0 0.0
2018-Aug-12 03:30N 44°23' W 068°48'0 0.0
2018-Aug-12 03:00N 44°23' W 068°48'0 0.0
2018-Aug-12 02:30N 44°23' W 068°48'0 0.0
2018-Aug-12 02:00N 44°23' W 068°48'0 0.0
2018-Aug-12 01:27N 44°23' W 068°48'0 0.0
2018-Aug-12 00:57N 44°23' W 068°48'0 0.0
2018-Aug-12 00:30N 44°23' W 068°48'0 0.0
2018-Aug-12 00:00N 44°23' W 068°48'0 0.0
2018-Aug-11 23:30N 44°23' W 068°48'0 0.0
2018-Aug-11 22:57N 44°23' W 068°48'0 0.0
2018-Aug-11 22:30N 44°23' W 068°48'0 0.0
2018-Aug-11 22:00N 44°23' W 068°48'0 0.0
2018-Aug-11 21:30N 44°23' W 068°48'0 0.0
2018-Aug-11 20:57N 44°23' W 068°48'0 0.0
2018-Aug-11 20:30N 44°23' W 068°48'0 0.0
2018-Aug-11 20:00N 44°23' W 068°48'0 0.0
2018-Aug-11 19:30N 44°23' W 068°48'0 0.0
2018-Aug-11 19:00N 44°23' W 068°48'0 0.0
2018-Aug-11 18:30N 44°23' W 068°48'0 0.0
2018-Aug-11 17:57N 44°23' W 068°48'0 0.0
2018-Aug-11 17:30N 44°23' W 068°48'0 0.0
2018-Aug-11 17:00N 44°23' W 068°48'0 0.0
2018-Aug-11 16:30N 44°23' W 068°48'0 0.0
2018-Aug-11 16:00N 44°23' W 068°48'0 0.0
2018-Aug-11 15:30N 44°23' W 068°48'0 0.0
2018-Aug-11 14:57N 44°23' W 068°48'0 0.0
2018-Aug-11 14:30N 44°23' W 068°48'0 0.0
2018-Aug-11 14:00N 44°23' W 068°48'0 0.0
2018-Aug-11 13:30N 44°23' W 068°48'0 0.0
2018-Aug-11 13:00N 44°23' W 068°48'0 0.0
2018-Aug-11 12:30N 44°23' W 068°48'0 0.0
2018-Aug-11 12:00N 44°23' W 068°48'0 0.0
2018-Aug-11 11:30N 44°23' W 068°48'0 0.0
2018-Aug-11 11:00N 44°23' W 068°48'0 0.0
2018-Aug-11 10:30N 44°23' W 068°48'0 0.0
2018-Aug-11 10:00N 44°23' W 068°48'0 0.0
2018-Aug-11 09:30N 44°23' W 068°48'0 0.0
2018-Aug-11 09:00N 44°23' W 068°48'0 0.0
2018-Aug-11 08:30N 44°23' W 068°48'0 0.0
2018-Aug-11 08:00N 44°23' W 068°48'0 0.0
2018-Aug-11 07:30N 44°23' W 068°48'0 0.0
2018-Aug-11 07:00N 44°23' W 068°48'0 0.0
2018-Aug-11 06:30N 44°23' W 068°48'0 0.0
2018-Aug-11 06:00N 44°23' W 068°48'0 0.0
2018-Aug-11 05:30N 44°23' W 068°48'0 0.0
2018-Aug-11 05:00N 44°23' W 068°48'0 0.0
2018-Aug-11 04:30N 44°23' W 068°48'0 0.0
2018-Aug-11 04:00N 44°23' W 068°48'0 0.0
2018-Aug-11 03:30N 44°23' W 068°48'0 0.0
2018-Aug-11 03:00N 44°23' W 068°48'0 0.0
2018-Aug-11 02:30N 44°23' W 068°48'0 0.0
2018-Aug-11 02:00N 44°23' W 068°48'0 0.0
2018-Aug-11 01:27N 44°23' W 068°48'0 0.0
2018-Aug-11 01:00N 44°23' W 068°48'0 0.0
2018-Aug-11 00:30N 44°23' W 068°48'0 0.0
2018-Aug-11 00:00N 44°23' W 068°48'0 0.0
2018-Aug-10 23:30N 44°23' W 068°48'0 0.0
2018-Aug-10 23:00N 44°23' W 068°48'0 0.0
2018-Aug-10 22:30N 44°23' W 068°48'0 0.0
2018-Aug-10 22:00N 44°23' W 068°48'0 0.0
2018-Aug-10 21:30N 44°23' W 068°48'0 0.0
2018-Aug-10 21:00N 44°23' W 068°48'0 0.0
2018-Aug-10 20:30N 44°23' W 068°48'0 0.0
2018-Aug-10 20:00N 44°23' W 068°48'0 0.0
2018-Aug-10 19:30N 44°23' W 068°48'0 0.0
2018-Aug-10 14:39N 44°23' W 068°48'0 0.0
2018-Aug-10 14:21N 44°23' W 068°48'0 0.0
2018-Aug-10 10:48N 44°23' W 068°48'0 0.0
2018-Aug-10 10:24N 44°23' W 068°48'0 0.0
2018-Aug-10 10:00N 44°23' W 068°48'0 0.0
2018-Aug-10 09:30N 44°23' W 068°48'0 0.0
2018-Aug-10 08:42N 44°23' W 068°48'0 0.0
2018-Aug-10 08:30N 44°23' W 068°48'0 0.0
2018-Aug-10 07:42N 44°23' W 068°48'0 0.0
2018-Aug-10 07:30N 44°23' W 068°48'0 0.0
2018-Aug-10 06:48N 44°23' W 068°48'0 0.0
2018-Aug-10 06:30N 44°23' W 068°48'0 0.0
2018-Aug-10 06:00N 44°23' W 068°48'0 0.0
2018-Aug-10 05:24N 44°23' W 068°48'0 0.0
2018-Aug-10 04:51N 44°23' W 068°48'0 0.0
2018-Aug-10 04:18N 44°23' W 068°48'0 0.0
2018-Aug-10 04:00N 44°23' W 068°48'0 0.0
2018-Aug-10 03:24N 44°23' W 068°48'0 0.0
2018-Aug-10 03:00N 44°23' W 068°48'0 0.0
2018-Aug-10 02:12N 44°23' W 068°48'0 0.0
2018-Aug-10 01:57N 44°23' W 068°48'0 0.0
2018-Aug-10 01:30N 44°23' W 068°48'0 0.0
2018-Aug-09 22:48N 44°23' W 068°48'0 0.0
2018-Aug-09 22:30N 44°23' W 068°48'0 0.0
2018-Aug-09 22:00N 44°23' W 068°48'0 0.0
2018-Aug-09 21:30N 44°23' W 068°48'0 0.0
2018-Aug-09 20:45N 44°23' W 068°48'0 0.0
2018-Aug-09 19:54N 44°23' W 068°48'0 0.0
2018-Aug-09 18:24N 44°23' W 068°48'0 0.0
2018-Aug-09 16:57N 44°23' W 068°48'0 0.0
2018-Aug-09 09:09N 44°23' W 068°48'0 0.0
2018-Aug-09 08:57N 44°23' W 068°48'0 0.0
2018-Aug-09 08:30N 44°23' W 068°48'0 0.0
2018-Aug-09 07:24N 44°23' W 068°48'0 0.0
2018-Aug-09 06:00N 44°23' W 068°48'0 0.0
2018-Aug-09 04:27N 44°23' W 068°48'0 0.0
2018-Aug-09 03:24N 44°23' W 068°48'0 0.0
2018-Aug-09 02:54N 44°23' W 068°48'0 0.0
2018-Aug-09 00:30N 44°23' W 068°48'0 0.0
2018-Aug-08 23:06N 44°23' W 068°48'0 0.0
2018-Aug-08 22:36N 44°23' W 068°48'0 0.0
2018-Aug-08 22:27N 44°23' W 068°48'0 0.0
2018-Aug-08 22:00N 44°23' W 068°48'0 0.0
2018-Aug-08 21:12N 44°23' W 068°48'0 0.0
2018-Aug-08 21:00N 44°23' W 068°48'0 0.0
2018-Aug-08 20:30N 44°23' W 068°48'0 0.0
2018-Aug-08 19:54N 44°23' W 068°48'0 0.0
2018-Aug-08 18:27N 44°23' W 068°48'0 0.0
2018-Aug-08 17:45N 44°23' W 068°48'0 0.0
2018-Aug-08 17:27N 44°23' W 068°48'0 0.0
2018-Aug-08 16:45N 44°23' W 068°48'0 0.0
2018-Aug-08 16:27N 44°23' W 068°48'0 0.0
2018-Aug-08 15:48N 44°23' W 068°48'0 0.0
2018-Aug-08 15:30N 44°23' W 068°48'0 0.0
2018-Aug-08 14:57N 44°23' W 068°48'0 0.0
2018-Aug-08 14:30N 44°23' W 068°48'0 0.0
2018-Aug-08 13:48N 44°23' W 068°48'0 0.0
2018-Aug-08 13:30N 44°23' W 068°48'0 0.0
2018-Aug-08 10:42N 44°23' W 068°48'0 0.0
2018-Aug-08 09:51N 44°23' W 068°48'0 0.0
2018-Aug-08 09:21N 44°23' W 068°48'0 0.0
2018-Aug-08 08:54N 44°23' W 068°48'0 0.0
2018-Aug-08 08:30N 44°23' W 068°48'0 0.0
2018-Aug-08 08:00N 44°23' W 068°48'0 0.0
2018-Aug-08 07:30N 44°23' W 068°48'0 0.0
2018-Aug-08 06:54N 44°23' W 068°48'0 0.0
2018-Aug-08 06:30N 44°23' W 068°48'0 0.0
2018-Aug-08 06:00N 44°23' W 068°48'0 0.0
2018-Aug-08 05:27N 44°23' W 068°48'0 0.0
2018-Aug-08 00:03N 44°23' W 068°48'0 0.0
2018-Aug-08 00:00N 44°23' W 068°48'0 0.0
2018-Aug-07 22:30N 44°23' W 068°48'0 0.0
2018-Aug-07 22:00N 44°23' W 068°48'0 0.0
2018-Aug-07 21:03N 44°23' W 068°48'0 0.1
2018-Aug-07 21:00N 44°23' W 068°48'0 0.0
2018-Aug-07 20:30N 44°23' W 068°48'0 0.0
2018-Aug-07 19:42N 44°23' W 068°48'0 0.0
2018-Aug-07 18:51N 44°23' W 068°48'0 0.0
2018-Aug-07 18:12N 44°23' W 068°48'0 0.0
2018-Aug-07 17:57N 44°23' W 068°48'0 0.0
2018-Aug-07 17:30N 44°23' W 068°48'0 0.0
2018-Aug-07 17:00N 44°23' W 068°48'0 0.0
2018-Aug-07 16:30N 44°23' W 068°48'0 0.0
2018-Aug-07 16:00N 44°23' W 068°48'0 0.0
2018-Aug-07 15:21N 44°23' W 068°48'0 0.0
2018-Aug-07 14:51N 44°23' W 068°48'0 0.2
2018-Aug-07 14:30N 44°23' W 068°48'1 0.8
2018-Aug-07 13:19N 44°23' W 068°47'1 0.8
2018-Aug-07 12:18N 44°23' W 068°48'0 0.0
2018-Aug-07 12:00N 44°23' W 068°48'0 0.0
2018-Aug-07 11:30N 44°23' W 068°48'0 0.0
2018-Aug-07 11:00N 44°23' W 068°48'0 0.0
2018-Aug-07 10:30N 44°23' W 068°48'0 0.0
2018-Aug-07 09:54N 44°23' W 068°48'0 0.0
2018-Aug-07 09:30N 44°23' W 068°48'0 0.0
2018-Aug-07 09:00N 44°23' W 068°48'0 0.0
2018-Aug-07 08:30N 44°23' W 068°48'0 0.0
2018-Aug-07 07:54N 44°23' W 068°48'0 0.0
2018-Aug-07 07:18N 44°23' W 068°48'0 0.0
2018-Aug-07 06:18N 44°23' W 068°48'0 0.0
2018-Aug-07 05:54N 44°23' W 068°48'0 0.0
2018-Aug-07 05:27N 44°23' W 068°48'0 0.0
2018-Aug-07 03:24N 44°23' W 068°48'0 0.0
2018-Aug-06 22:18N 44°23' W 068°48'0 0.0
2018-Aug-06 20:33N 44°23' W 068°48'0 0.1
2018-Aug-06 20:30N 44°23' W 068°48'0 0.0
2018-Aug-06 19:57N 44°23' W 068°48'0 0.0
2018-Aug-06 19:30N 44°23' W 068°48'0 0.0
2018-Aug-06 15:24N 44°23' W 068°48'0 0.0
2018-Aug-06 14:57N 44°23' W 068°48'0 0.0
2018-Aug-06 14:18N 44°23' W 068°48'0 0.0
2018-Aug-06 04:06N 44°23' W 068°48'0 0.0
2018-Aug-06 04:00N 44°23' W 068°48'0 0.0
2018-Aug-05 18:18N 44°23' W 068°48'0 0.0
2018-Aug-05 15:18N 44°23' W 068°48'1 4.7
2018-Aug-05 15:00N 44°22' W 068°49'3 6.3
2018-Aug-05 14:30N 44°19' W 068°50'12 5.7
2018-Aug-05 12:26N 44°15' W 068°35'1 0.3
2018-Aug-05 08:54N 44°14' W 068°33'0 0.0
2018-Aug-05 02:54N 44°14' W 068°33'0 0.0
2018-Aug-05 02:21N 44°14' W 068°33'0 0.0
2018-Aug-05 02:00N 44°14' W 068°33'0 0.0
2018-Aug-04 23:54N 44°14' W 068°33'0 0.0
2018-Aug-04 20:26N 44°14' W 068°34'  
Track history (hours):
 
Tides and Currents Weather Stations Pressure Air Temp Water Temp Dewpoint Dewpoint Depression Visibility Wind Speed Wind Dir Waves Ship Positions

Schooner Bowdoin

Training vessel for Maine Maritime Academy.

Ship's website: http://bowdoin.mma.edu/

Owner: MAINE MARITIME ACADEMY, CASTINE, ME. More information available from US FCC via Universal Licensing System and Coast Guard Vessel Documentation Center.

Last reported at 2018-Aug-14 06:57 UTC. Time now 2018-Aug-14 07:05 UTC.
Position N 44°09' W 068°53'.

Length 28 m; draft 3.2 m.

Type: Sailing vessel. MMSI: 303498000.

Date/timePositionNaut miles runAvg speedWind from/ knotsBaromVisibWave heightAir tempDewpointWater temp
2018-Aug-14 06:57N 44°09' W 068°53'0 0.0
2018-Aug-14 06:30N 44°09' W 068°53'0 0.0
2018-Aug-14 06:00N 44°09' W 068°53'0 0.0
2018-Aug-14 05:29N 44°09' W 068°53'0 0.0
2018-Aug-14 05:00N 44°09' W 068°53'0 0.0
2018-Aug-14 04:30N 44°09' W 068°53'0 0.0
2018-Aug-14 03:59N 44°09' W 068°53'0 0.0
2018-Aug-14 03:29N 44°09' W 068°53'0 0.0
2018-Aug-14 02:53N 44°09' W 068°53'0 0.0
2018-Aug-14 02:29N 44°09' W 068°53'0 0.0
2018-Aug-14 02:00N 44°09' W 068°53'0 0.0
2018-Aug-14 01:30N 44°09' W 068°53'0 0.0
2018-Aug-14 00:57N 44°09' W 068°53'0 0.0
2018-Aug-14 00:26N 44°09' W 068°53'0 0.0
2018-Aug-14 00:00N 44°09' W 068°53'0 0.0
2018-Aug-13 23:30N 44°09' W 068°53'0 0.0
2018-Aug-13 23:00N 44°09' W 068°53'0 0.0
2018-Aug-13 22:31N 44°09' W 068°53'0 0.0
2018-Aug-13 21:59N 44°09' W 068°53'0 0.0
2018-Aug-13 21:29N 44°09' W 068°53'0 0.0
2018-Aug-13 21:00N 44°09' W 068°53'0 0.0
2018-Aug-13 20:30N 44°09' W 068°53'0 0.0
2018-Aug-13 20:00N 44°09' W 068°53'0 0.4
2018-Aug-13 19:31N 44°09' W 068°53'3 5.5
2018-Aug-13 19:01N 44°12' W 068°54'4 7.2
2018-Aug-13 18:30N 44°16' W 068°53'4 7.2
2018-Aug-13 17:58N 44°19' W 068°51'3 6.0
2018-Aug-13 17:28N 44°22' W 068°49'2 4.1
2018-Aug-13 17:00N 44°21' W 068°51'3 6.9
2018-Aug-13 16:31N 44°17' W 068°52'2 4.1
2018-Aug-13 16:00N 44°19' W 068°51'3 5.1
2018-Aug-13 15:30N 44°22' W 068°50'2 0.1
2018-Aug-12 21:24N 44°23' W 068°48'0 0.0
2018-Aug-12 21:00N 44°23' W 068°48'0 0.0
2018-Aug-12 20:08N 44°23' W 068°48'0 0.0
2018-Aug-12 19:54N 44°23' W 068°48'0 0.0
2018-Aug-12 19:12N 44°23' W 068°48'0 0.0
2018-Aug-12 18:48N 44°23' W 068°48'0 0.0
2018-Aug-12 18:21N 44°23' W 068°48'0 0.0
2018-Aug-12 18:00N 44°23' W 068°48'0 0.0
2018-Aug-12 17:30N 44°23' W 068°48'0 0.0
2018-Aug-12 16:57N 44°23' W 068°48'0 0.0
2018-Aug-12 16:30N 44°23' W 068°48'0 0.0
2018-Aug-12 16:00N 44°23' W 068°48'0 0.0
2018-Aug-12 15:27N 44°23' W 068°48'0 0.0
2018-Aug-12 15:00N 44°23' W 068°48'0 0.0
2018-Aug-12 14:30N 44°23' W 068°48'0 0.0
2018-Aug-12 13:57N 44°23' W 068°48'0 0.0
2018-Aug-12 13:30N 44°23' W 068°48'0 0.0
2018-Aug-12 13:00N 44°23' W 068°48'0 0.0
2018-Aug-12 12:30N 44°23' W 068°48'0 0.0
2018-Aug-12 12:00N 44°23' W 068°48'0 0.0
2018-Aug-12 11:30N 44°23' W 068°48'0 0.0
2018-Aug-12 10:54N 44°23' W 068°48'0 0.0
2018-Aug-12 10:30N 44°23' W 068°48'0 0.0
2018-Aug-12 10:00N 44°23' W 068°48'0 0.0
2018-Aug-12 09:30N 44°23' W 068°48'0 0.0
2018-Aug-12 09:00N 44°23' W 068°48'0 0.0
2018-Aug-12 08:27N 44°23' W 068°48'0 0.0
2018-Aug-12 08:00N 44°23' W 068°48'0 0.0
2018-Aug-12 07:30N 44°23' W 068°48'0 0.0
2018-Aug-12 07:00N 44°23' W 068°48'0 0.0
2018-Aug-12 06:27N 44°23' W 068°48'0 0.0
2018-Aug-12 06:00N 44°23' W 068°48'0 0.0
2018-Aug-12 05:30N 44°23' W 068°48'0 0.0
2018-Aug-12 05:00N 44°23' W 068°48'0 0.0
2018-Aug-12 04:30N 44°23' W 068°48'0 0.0
2018-Aug-12 03:54N 44°23' W 068°48'0 0.0
2018-Aug-12 03:30N 44°23' W 068°48'0 0.0
2018-Aug-12 03:00N 44°23' W 068°48'0 0.0
2018-Aug-12 02:30N 44°23' W 068°48'0 0.0
2018-Aug-12 02:00N 44°23' W 068°48'0 0.0
2018-Aug-12 01:27N 44°23' W 068°48'0 0.0
2018-Aug-12 00:57N 44°23' W 068°48'0 0.0
2018-Aug-12 00:30N 44°23' W 068°48'0 0.0
2018-Aug-12 00:00N 44°23' W 068°48'0 0.0
2018-Aug-11 23:30N 44°23' W 068°48'0 0.0
2018-Aug-11 22:57N 44°23' W 068°48'0 0.0
2018-Aug-11 22:30N 44°23' W 068°48'0 0.0
2018-Aug-11 22:00N 44°23' W 068°48'0 0.0
2018-Aug-11 21:30N 44°23' W 068°48'0 0.0
2018-Aug-11 20:57N 44°23' W 068°48'0 0.0
2018-Aug-11 20:30N 44°23' W 068°48'0 0.0
2018-Aug-11 20:00N 44°23' W 068°48'0 0.0
2018-Aug-11 19:30N 44°23' W 068°48'0 0.0
2018-Aug-11 19:00N 44°23' W 068°48'0 0.0
2018-Aug-11 18:30N 44°23' W 068°48'0 0.0
2018-Aug-11 17:57N 44°23' W 068°48'0 0.0
2018-Aug-11 17:30N 44°23' W 068°48'0 0.0
2018-Aug-11 17:00N 44°23' W 068°48'0 0.0
2018-Aug-11 16:30N 44°23' W 068°48'0 0.0
2018-Aug-11 16:00N 44°23' W 068°48'0 0.0
2018-Aug-11 15:30N 44°23' W 068°48'0 0.0
2018-Aug-11 14:57N 44°23' W 068°48'0 0.0
2018-Aug-11 14:30N 44°23' W 068°48'0 0.0
2018-Aug-11 14:00N 44°23' W 068°48'0 0.0
2018-Aug-11 13:30N 44°23' W 068°48'0 0.0
2018-Aug-11 13:00N 44°23' W 068°48'0 0.0
2018-Aug-11 12:30N 44°23' W 068°48'0 0.0
2018-Aug-11 12:00N 44°23' W 068°48'0 0.0
2018-Aug-11 11:30N 44°23' W 068°48'0 0.0
2018-Aug-11 11:00N 44°23' W 068°48'0 0.0
2018-Aug-11 10:30N 44°23' W 068°48'0 0.0
2018-Aug-11 10:00N 44°23' W 068°48'0 0.0
2018-Aug-11 09:30N 44°23' W 068°48'0 0.0
2018-Aug-11 09:00N 44°23' W 068°48'0 0.0
2018-Aug-11 08:30N 44°23' W 068°48'0 0.0
2018-Aug-11 08:00N 44°23' W 068°48'0 0.0
2018-Aug-11 07:30N 44°23' W 068°48'0 0.0
2018-Aug-11 07:00N 44°23' W 068°48'0 0.0
2018-Aug-11 06:30N 44°23' W 068°48'0 0.0
2018-Aug-11 06:00N 44°23' W 068°48'0 0.0
2018-Aug-11 05:30N 44°23' W 068°48'0 0.0
2018-Aug-11 05:00N 44°23' W 068°48'0 0.0
2018-Aug-11 04:30N 44°23' W 068°48'0 0.0
2018-Aug-11 04:00N 44°23' W 068°48'0 0.0
2018-Aug-11 03:30N 44°23' W 068°48'0 0.0
2018-Aug-11 03:00N 44°23' W 068°48'0 0.0
2018-Aug-11 02:30N 44°23' W 068°48'0 0.0
2018-Aug-11 02:00N 44°23' W 068°48'0 0.0
2018-Aug-11 01:27N 44°23' W 068°48'0 0.0
2018-Aug-11 01:00N 44°23' W 068°48'0 0.0
2018-Aug-11 00:30N 44°23' W 068°48'0 0.0
2018-Aug-11 00:00N 44°23' W 068°48'0 0.0
2018-Aug-10 23:30N 44°23' W 068°48'0 0.0
2018-Aug-10 23:00N 44°23' W 068°48'0 0.0
2018-Aug-10 22:30N 44°23' W 068°48'0 0.0
2018-Aug-10 22:00N 44°23' W 068°48'0 0.0
2018-Aug-10 21:30N 44°23' W 068°48'0 0.0
2018-Aug-10 21:00N 44°23' W 068°48'0 0.0
2018-Aug-10 20:30N 44°23' W 068°48'0 0.0
2018-Aug-10 20:00N 44°23' W 068°48'0 0.0
2018-Aug-10 19:30N 44°23' W 068°48'0 0.0
2018-Aug-10 14:39N 44°23' W 068°48'0 0.0
2018-Aug-10 14:21N 44°23' W 068°48'0 0.0
2018-Aug-10 10:48N 44°23' W 068°48'0 0.0
2018-Aug-10 10:24N 44°23' W 068°48'0 0.0
2018-Aug-10 10:00N 44°23' W 068°48'0 0.0
2018-Aug-10 09:30N 44°23' W 068°48'0 0.0
2018-Aug-10 08:42N 44°23' W 068°48'0 0.0
2018-Aug-10 08:30N 44°23' W 068°48'0 0.0
2018-Aug-10 07:42N 44°23' W 068°48'0 0.0
2018-Aug-10 07:30N 44°23' W 068°48'0 0.0
2018-Aug-10 06:48N 44°23' W 068°48'0 0.0
2018-Aug-10 06:30N 44°23' W 068°48'0 0.0
2018-Aug-10 06:00N 44°23' W 068°48'0 0.0
2018-Aug-10 05:24N 44°23' W 068°48'0 0.0
2018-Aug-10 04:51N 44°23' W 068°48'0 0.0
2018-Aug-10 04:18N 44°23' W 068°48'0 0.0
2018-Aug-10 04:00N 44°23' W 068°48'0 0.0
2018-Aug-10 03:24N 44°23' W 068°48'0 0.0
2018-Aug-10 03:00N 44°23' W 068°48'0 0.0
2018-Aug-10 02:12N 44°23' W 068°48'0 0.0
2018-Aug-10 01:57N 44°23' W 068°48'0 0.0
2018-Aug-10 01:30N 44°23' W 068°48'0 0.0
2018-Aug-09 22:48N 44°23' W 068°48'0 0.0
2018-Aug-09 22:30N 44°23' W 068°48'0 0.0
2018-Aug-09 22:00N 44°23' W 068°48'0 0.0
2018-Aug-09 21:30N 44°23' W 068°48'0 0.0
2018-Aug-09 20:45N 44°23' W 068°48'0 0.0
2018-Aug-09 19:54N 44°23' W 068°48'0 0.0
2018-Aug-09 18:24N 44°23' W 068°48'0 0.0
2018-Aug-09 16:57N 44°23' W 068°48'0 0.0
2018-Aug-09 09:09N 44°23' W 068°48'0 0.0
2018-Aug-09 08:57N 44°23' W 068°48'0 0.0
2018-Aug-09 08:30N 44°23' W 068°48'0 0.0
2018-Aug-09 07:24N 44°23' W 068°48'0 0.0
2018-Aug-09 06:00N 44°23' W 068°48'0 0.0
2018-Aug-09 04:27N 44°23' W 068°48'0 0.0
2018-Aug-09 03:24N 44°23' W 068°48'0 0.0
2018-Aug-09 02:54N 44°23' W 068°48'0 0.0
2018-Aug-09 00:30N 44°23' W 068°48'0 0.0
2018-Aug-08 23:06N 44°23' W 068°48'0 0.0
2018-Aug-08 22:36N 44°23' W 068°48'0 0.0
2018-Aug-08 22:27N 44°23' W 068°48'0 0.0
2018-Aug-08 22:00N 44°23' W 068°48'0 0.0
2018-Aug-08 21:12N 44°23' W 068°48'0 0.0
2018-Aug-08 21:00N 44°23' W 068°48'0 0.0
2018-Aug-08 20:30N 44°23' W 068°48'0 0.0
2018-Aug-08 19:54N 44°23' W 068°48'0 0.0
2018-Aug-08 18:27N 44°23' W 068°48'0 0.0
2018-Aug-08 17:45N 44°23' W 068°48'0 0.0
2018-Aug-08 17:27N 44°23' W 068°48'0 0.0
2018-Aug-08 16:45N 44°23' W 068°48'0 0.0
2018-Aug-08 16:27N 44°23' W 068°48'0 0.0
2018-Aug-08 15:48N 44°23' W 068°48'0 0.0
2018-Aug-08 15:30N 44°23' W 068°48'0 0.0
2018-Aug-08 14:57N 44°23' W 068°48'0 0.0
2018-Aug-08 14:30N 44°23' W 068°48'0 0.0
2018-Aug-08 13:48N 44°23' W 068°48'0 0.0
2018-Aug-08 13:30N 44°23' W 068°48'0 0.0
2018-Aug-08 10:42N 44°23' W 068°48'0 0.0
2018-Aug-08 09:51N 44°23' W 068°48'0 0.0
2018-Aug-08 09:21N 44°23' W 068°48'0 0.0
2018-Aug-08 08:54N 44°23' W 068°48'0 0.0
2018-Aug-08 08:30N 44°23' W 068°48'0 0.0
2018-Aug-08 08:00N 44°23' W 068°48'0 0.0
2018-Aug-08 07:30N 44°23' W 068°48'0 0.0
2018-Aug-08 06:54N 44°23' W 068°48'0 0.0
2018-Aug-08 06:30N 44°23' W 068°48'0 0.0
2018-Aug-08 06:00N 44°23' W 068°48'0 0.0
2018-Aug-08 05:27N 44°23' W 068°48'0 0.0
2018-Aug-08 00:03N 44°23' W 068°48'0 0.0
2018-Aug-08 00:00N 44°23' W 068°48'0 0.0
2018-Aug-07 22:30N 44°23' W 068°48'0 0.0
2018-Aug-07 22:00N 44°23' W 068°48'0 0.0
2018-Aug-07 21:03N 44°23' W 068°48'0 0.1
2018-Aug-07 21:00N 44°23' W 068°48'0 0.0
2018-Aug-07 20:30N 44°23' W 068°48'0 0.0
2018-Aug-07 19:42N 44°23' W 068°48'0 0.0
2018-Aug-07 18:51N 44°23' W 068°48'0 0.0
2018-Aug-07 18:12N 44°23' W 068°48'0 0.0
2018-Aug-07 17:57N 44°23' W 068°48'0 0.0
2018-Aug-07 17:30N 44°23' W 068°48'0 0.0
2018-Aug-07 17:00N 44°23' W 068°48'0 0.0
2018-Aug-07 16:30N 44°23' W 068°48'0 0.0
2018-Aug-07 16:00N 44°23' W 068°48'0 0.0
2018-Aug-07 15:21N 44°23' W 068°48'0 0.0
2018-Aug-07 14:51N 44°23' W 068°48'0 0.2
2018-Aug-07 14:30N 44°23' W 068°48'1 0.8
2018-Aug-07 13:19N 44°23' W 068°47'1 0.8
2018-Aug-07 12:18N 44°23' W 068°48'0 0.0
2018-Aug-07 12:00N 44°23' W 068°48'0 0.0
2018-Aug-07 11:30N 44°23' W 068°48'0 0.0
2018-Aug-07 11:00N 44°23' W 068°48'0 0.0
2018-Aug-07 10:30N 44°23' W 068°48'0 0.0
2018-Aug-07 09:54N 44°23' W 068°48'0 0.0
2018-Aug-07 09:30N 44°23' W 068°48'0 0.0
2018-Aug-07 09:00N 44°23' W 068°48'0 0.0
2018-Aug-07 08:30N 44°23' W 068°48'0 0.0
2018-Aug-07 07:54N 44°23' W 068°48'0 0.0
2018-Aug-07 07:18N 44°23' W 068°48'0 0.0
2018-Aug-07 06:18N 44°23' W 068°48'0 0.0
2018-Aug-07 05:54N 44°23' W 068°48'0 0.0
2018-Aug-07 05:27N 44°23' W 068°48'0 0.0
2018-Aug-07 03:24N 44°23' W 068°48'0 0.0
2018-Aug-06 22:18N 44°23' W 068°48'0 0.0
2018-Aug-06 20:33N 44°23' W 068°48'0 0.1
2018-Aug-06 20:30N 44°23' W 068°48'0 0.0
2018-Aug-06 19:57N 44°23' W 068°48'0 0.0
2018-Aug-06 19:30N 44°23' W 068°48'0 0.0
2018-Aug-06 15:24N 44°23' W 068°48'0 0.0
2018-Aug-06 14:57N 44°23' W 068°48'0 0.0
2018-Aug-06 14:18N 44°23' W 068°48'0 0.0
2018-Aug-06 04:06N 44°23' W 068°48'0 0.0
2018-Aug-06 04:00N 44°23' W 068°48'0 0.0
2018-Aug-05 18:18N 44°23' W 068°48'0 0.0
2018-Aug-05 15:18N 44°23' W 068°48'1 4.7
2018-Aug-05 15:00N 44°22' W 068°49'3 6.3
2018-Aug-05 14:30N 44°19' W 068°50'12 5.7
2018-Aug-05 12:26N 44°15' W 068°35'1 0.3
2018-Aug-05 08:54N 44°14' W 068°33'0 0.0
2018-Aug-05 02:54N 44°14' W 068°33'0 0.0
2018-Aug-05 02:21N 44°14' W 068°33'0 0.0
2018-Aug-05 02:00N 44°14' W 068°33'0 0.0
2018-Aug-04 23:54N 44°14' W 068°33'0 0.0
2018-Aug-04 20:26N 44°14' W 068°34'  

Dump ship's entire track history